createdAt,value
2022-09-03T00:02:08.686Z,13.35
2022-09-03T00:04:26.055Z,13.30
2022-09-03T00:06:43.331Z,13.27
2022-09-03T00:09:00.423Z,13.22
2022-09-03T00:11:17.688Z,13.16
2022-09-03T00:13:35.071Z,13.15
2022-09-03T00:15:53.510Z,13.14
2022-09-03T00:18:10.948Z,13.09
2022-09-03T00:20:28.258Z,13.09
2022-09-03T00:22:45.630Z,13.05
2022-09-03T00:25:02.732Z,13.03
2022-09-03T00:27:19.999Z,13.00
2022-09-03T00:29:37.107Z,12.94
2022-09-03T00:31:54.067Z,12.91
2022-09-03T00:34:11.393Z,12.95
2022-09-03T00:36:28.462Z,12.97
2022-09-03T00:38:45.397Z,12.97
2022-09-03T00:41:02.383Z,13.02
2022-09-03T00:43:20.606Z,13.06
2022-09-03T00:45:37.930Z,13.03
2022-09-03T00:47:56.165Z,13.00
2022-09-03T00:50:14.193Z,13.03
2022-09-03T00:52:33.664Z,13.06
2022-09-03T00:54:51.194Z,13.13
2022-09-03T00:57:08.185Z,13.15
2022-09-03T00:59:25.552Z,13.15
2022-09-03T01:01:42.693Z,13.17
2022-09-03T01:04:00.761Z,13.17
2022-09-03T01:06:17.692Z,13.21
2022-09-03T01:08:36.933Z,13.26
2022-09-03T01:10:54.212Z,13.26
2022-09-03T01:13:11.105Z,13.22
2022-09-03T01:15:28.094Z,13.18
2022-09-03T01:17:45.974Z,13.14
2022-09-03T01:20:02.939Z,13.09
2022-09-03T01:22:20.240Z,13.07
2022-09-03T01:24:37.262Z,13.06
2022-09-03T01:26:54.240Z,13.07
2022-09-03T01:29:11.262Z,13.01
2022-09-03T01:31:28.355Z,12.97
2022-09-03T01:33:45.462Z,12.97
2022-09-03T01:36:02.467Z,12.99
2022-09-03T01:38:20.770Z,13.02
2022-09-03T01:40:37.793Z,13.08
2022-09-03T01:42:55.049Z,13.10
2022-09-03T01:45:12.106Z,13.14
2022-09-03T01:47:30.428Z,13.15
2022-09-03T01:49:48.757Z,13.17
2022-09-03T01:52:06.032Z,13.17
2022-09-03T01:54:23.326Z,13.18
2022-09-03T01:56:40.374Z,13.20
2022-09-03T01:58:57.644Z,13.20
2022-09-03T02:01:14.699Z,13.18
2022-09-03T02:03:35.456Z,13.23
2022-09-03T02:05:57.896Z,13.30
2022-09-03T02:08:14.996Z,13.33
2022-09-03T02:10:31.896Z,13.33
2022-09-03T02:12:48.936Z,13.28
2022-09-03T02:15:06.861Z,13.22
2022-09-03T02:17:24.175Z,13.21
2022-09-03T02:19:41.136Z,13.20
2022-09-03T02:21:58.403Z,13.20
2022-09-03T02:24:15.442Z,13.19
2022-09-03T02:26:32.770Z,13.20
2022-09-03T02:28:49.802Z,13.27
2022-09-03T02:31:07.197Z,13.20
2022-09-03T02:33:24.297Z,13.10
2022-09-03T02:35:41.257Z,13.06
2022-09-03T02:37:58.562Z,13.04
2022-09-03T02:40:15.632Z,13.08
2022-09-03T02:42:32.931Z,13.11
2022-09-03T02:44:50.869Z,13.13
2022-09-03T02:47:08.300Z,13.08
2022-09-03T02:49:25.228Z,13.15
2022-09-03T02:51:42.539Z,13.16
2022-09-03T02:53:59.929Z,13.15
2022-09-03T02:56:17.288Z,13.17
2022-09-03T02:58:34.593Z,13.20
2022-09-03T03:00:51.715Z,13.23
2022-09-03T03:03:08.793Z,13.21
2022-09-03T03:05:25.905Z,13.24
2022-09-03T03:07:42.847Z,13.31
2022-09-03T03:10:00.153Z,13.40
2022-09-03T03:12:17.383Z,13.45
2022-09-03T03:14:34.294Z,13.41
2022-09-03T03:16:51.465Z,13.39
2022-09-03T03:19:08.535Z,13.39
2022-09-03T03:21:25.766Z,13.38
2022-09-03T03:23:43.076Z,13.42
2022-09-03T03:26:00.086Z,13.43
2022-09-03T03:28:17.901Z,13.42
2022-09-03T03:30:35.396Z,13.38
2022-09-03T03:32:52.658Z,13.37
2022-09-03T03:35:09.910Z,13.42
2022-09-03T03:37:27.219Z,13.41
2022-09-03T03:39:44.546Z,13.41
2022-09-03T03:42:01.910Z,13.51
2022-09-03T03:44:18.849Z,13.48
2022-09-03T03:46:36.095Z,13.48
2022-09-03T03:48:53.217Z,13.46
2022-09-03T03:51:10.236Z,13.45
2022-09-03T03:53:27.582Z,13.46
2022-09-03T03:55:44.498Z,13.47
2022-09-03T03:58:01.796Z,13.47
2022-09-03T04:00:18.756Z,13.50
2022-09-03T04:02:39.035Z,13.51
2022-09-03T04:04:56.556Z,13.53
2022-09-03T04:07:13.827Z,13.58
2022-09-03T04:09:30.857Z,13.55
2022-09-03T04:11:47.914Z,13.56
2022-09-03T04:14:04.930Z,13.56
2022-09-03T04:16:22.053Z,13.56
2022-09-03T04:18:39.032Z,13.58
2022-09-03T04:20:56.361Z,13.60
2022-09-03T04:23:14.709Z,13.67
2022-09-03T04:25:31.700Z,13.67
2022-09-03T04:27:48.960Z,13.67
2022-09-03T04:30:06.006Z,13.67
2022-09-03T04:32:23.322Z,13.67
2022-09-03T04:34:40.627Z,13.68
2022-09-03T04:36:57.562Z,13.69
2022-09-03T04:39:14.818Z,13.66
2022-09-03T04:41:31.788Z,13.68
2022-09-03T04:43:51.563Z,13.70
2022-09-03T04:46:16.101Z,13.72
2022-09-03T04:48:35.205Z,13.72
2022-09-03T04:50:54.735Z,13.70
2022-09-03T04:53:11.748Z,13.70
2022-09-03T04:55:29.066Z,13.70
2022-09-03T04:57:46.392Z,13.77
2022-09-03T05:00:03.639Z,13.75
2022-09-03T05:02:20.619Z,13.79
2022-09-03T05:04:37.548Z,13.87
2022-09-03T05:06:54.815Z,13.89
2022-09-03T05:09:11.867Z,13.84
2022-09-03T05:11:28.776Z,13.82
2022-09-03T05:13:45.731Z,13.83
2022-09-03T05:16:03.084Z,13.82
2022-09-03T05:18:20.143Z,13.86
2022-09-03T05:20:37.369Z,13.89
2022-09-03T05:22:54.440Z,13.93
2022-09-03T05:25:11.673Z,13.96
2022-09-03T05:27:28.657Z,13.98
2022-09-03T05:29:45.978Z,13.99
2022-09-03T05:32:03.356Z,14.03
2022-09-03T05:34:20.393Z,14.10
2022-09-03T05:36:37.293Z,14.14
2022-09-03T05:38:54.594Z,14.14
2022-09-03T05:41:11.665Z,14.18
2022-09-03T05:43:28.717Z,14.19
2022-09-03T05:45:45.806Z,14.22
2022-09-03T05:48:02.922Z,14.25
2022-09-03T05:50:19.961Z,14.27
2022-09-03T05:52:36.913Z,14.33
2022-09-03T05:54:53.926Z,14.38
2022-09-03T05:57:12.270Z,14.42
2022-09-03T05:59:29.322Z,14.45
2022-09-03T06:01:50.967Z,14.50
2022-09-03T06:04:09.312Z,14.57
2022-09-03T06:06:26.609Z,14.63
2022-09-03T06:08:43.561Z,14.66
2022-09-03T06:11:00.528Z,14.69
2022-09-03T06:13:17.806Z,14.69
2022-09-03T06:15:35.192Z,14.81
2022-09-03T06:17:52.169Z,14.83
2022-09-03T06:20:09.257Z,14.79
2022-09-03T06:22:26.292Z,14.77
2022-09-03T06:24:44.491Z,14.77
2022-09-03T06:27:07.018Z,14.80
2022-09-03T06:29:25.274Z,14.83
2022-09-03T06:31:42.567Z,14.85
2022-09-03T06:34:03.860Z,14.88
2022-09-03T06:36:21.152Z,14.94
2022-09-03T06:38:38.409Z,15.01
2022-09-03T06:40:55.339Z,15.05
2022-09-03T06:43:12.596Z,15.00
2022-09-03T06:45:29.964Z,15.00
2022-09-03T06:47:46.946Z,15.01
2022-09-03T06:50:04.308Z,15.04
2022-09-03T06:52:21.583Z,15.10
2022-09-03T06:54:38.922Z,15.15
2022-09-03T06:56:56.201Z,15.17
2022-09-03T06:59:13.594Z,15.20
2022-09-03T07:01:31.608Z,15.28
2022-09-03T07:03:48.978Z,15.34
2022-09-03T07:06:07.019Z,15.44
2022-09-03T07:08:24.155Z,15.55
2022-09-03T07:10:41.193Z,15.61
2022-09-03T07:12:58.446Z,15.69
2022-09-03T07:15:15.535Z,15.76
2022-09-03T07:17:32.498Z,15.83
2022-09-03T07:19:49.378Z,15.89
2022-09-03T07:22:06.700Z,15.95
2022-09-03T07:24:23.619Z,15.99
2022-09-03T07:26:40.650Z,16.02
2022-09-03T07:28:57.598Z,16.08
2022-09-03T07:31:14.592Z,16.14
2022-09-03T07:33:33.750Z,16.15
2022-09-03T07:35:50.956Z,16.18
2022-09-03T07:38:08.027Z,16.20
2022-09-03T07:40:25.392Z,16.24
2022-09-03T07:42:42.775Z,16.25
2022-09-03T07:45:00.013Z,16.25
2022-09-03T07:47:16.962Z,16.26
2022-09-03T07:49:44.492Z,16.27
2022-09-03T07:52:05.735Z,16.34
2022-09-03T07:54:28.931Z,16.36
2022-09-03T07:56:46.396Z,16.39
2022-09-03T07:59:03.353Z,16.46
2022-09-03T08:01:20.326Z,16.48
2022-09-03T08:03:37.675Z,16.55
2022-09-03T08:05:54.658Z,16.66
2022-09-03T08:08:11.749Z,16.73
2022-09-03T08:10:32.537Z,16.85
2022-09-03T08:12:49.874Z,16.95
2022-09-03T08:15:06.809Z,17.01
2022-09-03T08:17:23.976Z,17.05
2022-09-03T08:19:41.291Z,17.14
2022-09-03T08:21:58.296Z,17.20
2022-09-03T08:24:16.801Z,17.24
2022-09-03T08:26:34.081Z,17.32
2022-09-03T08:28:51.222Z,17.38
2022-09-03T08:31:08.359Z,17.42
2022-09-03T08:33:25.386Z,17.47
2022-09-03T08:35:42.997Z,17.56
2022-09-03T08:38:00.278Z,17.72
2022-09-03T08:40:17.347Z,17.83
2022-09-03T08:42:34.650Z,17.94
2022-09-03T08:44:51.670Z,18.17
2022-09-03T08:47:08.729Z,18.16
2022-09-03T08:49:25.996Z,18.14
2022-09-03T08:51:43.119Z,18.21
2022-09-03T08:54:00.074Z,18.28
2022-09-03T08:56:17.115Z,18.38
2022-09-03T08:58:34.475Z,18.54
2022-09-03T09:00:51.427Z,18.69
2022-09-03T09:03:08.414Z,18.72
2022-09-03T09:05:25.345Z,18.71
2022-09-03T09:07:44.088Z,18.70
2022-09-03T09:10:01.070Z,18.66
2022-09-03T09:12:18.108Z,18.69
2022-09-03T09:14:36.544Z,18.68
2022-09-03T09:16:56.730Z,18.72
2022-09-03T09:19:13.766Z,18.71
2022-09-03T09:21:31.089Z,18.81
2022-09-03T09:23:47.990Z,18.84
2022-09-03T09:26:05.048Z,18.99
2022-09-03T09:28:23.770Z,18.96
2022-09-03T09:30:41.152Z,18.99
2022-09-03T09:32:58.267Z,19.03
2022-09-03T09:35:15.279Z,19.04
2022-09-03T09:37:32.211Z,19.12
2022-09-03T09:39:49.345Z,19.13
2022-09-03T09:42:08.314Z,19.17
2022-09-03T09:44:25.410Z,19.26
2022-09-03T09:46:42.397Z,19.34
2022-09-03T09:48:59.397Z,19.56
2022-09-03T09:51:16.378Z,19.77
2022-09-03T09:53:33.344Z,19.92
2022-09-03T09:55:50.675Z,20.11
2022-09-03T09:58:13.466Z,20.30
2022-09-03T10:00:31.421Z,20.33
2022-09-03T10:02:48.410Z,20.36
2022-09-03T10:05:05.748Z,20.41
2022-09-03T10:07:22.793Z,20.39
2022-09-03T10:09:40.130Z,20.44
2022-09-03T10:11:57.069Z,20.54
2022-09-03T10:14:14.178Z,20.66
2022-09-03T10:16:32.110Z,20.56
2022-09-03T10:18:49.106Z,20.67
2022-09-03T10:21:06.508Z,20.67
2022-09-03T10:23:23.536Z,20.69
2022-09-03T10:25:41.330Z,20.74
2022-09-03T10:27:59.819Z,20.69
2022-09-03T10:30:17.079Z,20.73
2022-09-03T10:32:39.819Z,20.72
2022-09-03T10:34:58.414Z,20.68
2022-09-03T10:37:15.382Z,20.76
2022-09-03T10:39:32.400Z,20.75
2022-09-03T10:41:59.864Z,20.90
2022-09-03T10:44:17.042Z,21.10
2022-09-03T10:46:35.346Z,21.62
2022-09-03T10:48:52.409Z,22.00
2022-09-03T10:51:09.502Z,22.39
2022-09-03T10:53:26.564Z,22.72
2022-09-03T10:55:43.651Z,22.96
2022-09-03T10:58:00.730Z,23.23
2022-09-03T11:00:17.829Z,23.38
2022-09-03T11:02:35.910Z,23.61
2022-09-03T11:04:53.898Z,23.83
2022-09-03T11:07:10.878Z,23.92
2022-09-03T11:09:29.244Z,23.81
2022-09-03T11:11:46.335Z,23.83
2022-09-03T11:14:03.261Z,23.99
2022-09-03T11:16:20.307Z,23.94
2022-09-03T11:18:37.771Z,23.97
2022-09-03T11:20:54.828Z,23.97
2022-09-03T11:23:12.084Z,24.15
2022-09-03T11:25:29.823Z,24.00
2022-09-03T11:27:46.918Z,23.82
2022-09-03T11:30:03.923Z,23.84
2022-09-03T11:32:20.916Z,24.19
2022-09-03T11:34:38.083Z,24.47
2022-09-03T11:36:55.444Z,24.75
2022-09-03T11:39:12.397Z,24.88
2022-09-03T11:41:29.386Z,24.87
2022-09-03T11:43:46.532Z,25.06
2022-09-03T11:46:03.965Z,25.30
2022-09-03T11:48:21.256Z,25.28
2022-09-03T11:50:38.388Z,25.46
2022-09-03T11:52:55.869Z,25.59
2022-09-03T11:55:14.361Z,25.80
2022-09-03T11:57:31.710Z,25.95
2022-09-03T11:59:48.792Z,25.82
2022-09-03T12:02:06.185Z,25.68
2022-09-03T12:04:23.580Z,25.26
2022-09-03T12:06:40.900Z,25.02
2022-09-03T12:08:58.193Z,25.03
2022-09-03T12:11:15.513Z,24.84
2022-09-03T12:13:32.635Z,24.78
2022-09-03T12:15:49.913Z,24.62
2022-09-03T12:18:07.010Z,24.44
2022-09-03T12:20:24.095Z,24.12
2022-09-03T12:22:41.040Z,24.08
2022-09-03T12:24:58.788Z,24.21
2022-09-03T12:27:15.748Z,24.77
2022-09-03T12:29:32.715Z,25.29
2022-09-03T12:31:50.765Z,25.63
2022-09-03T12:34:08.743Z,25.58
2022-09-03T12:36:25.711Z,25.76
2022-09-03T12:39:09.835Z,25.69
2022-09-03T12:41:23.464Z,25.55
2022-09-03T12:43:49.861Z,25.39
2022-09-03T12:46:10.983Z,25.09
2022-09-03T12:48:32.854Z,24.87
2022-09-03T12:50:56.766Z,24.76
2022-09-03T12:53:13.909Z,24.84
2022-09-03T12:55:31.275Z,24.72
2022-09-03T12:57:48.432Z,24.94
2022-09-03T13:00:06.035Z,25.18
2022-09-03T13:02:23.107Z,24.89
2022-09-03T13:04:42.796Z,24.52
2022-09-03T13:06:59.827Z,24.48
2022-09-03T13:09:16.969Z,24.39
2022-09-03T13:11:34.279Z,24.11
2022-09-03T13:13:51.570Z,23.91
2022-09-03T13:16:08.726Z,23.87
2022-09-03T13:18:25.796Z,23.84
2022-09-03T13:20:42.857Z,23.78
2022-09-03T13:22:59.939Z,23.73
2022-09-03T13:25:17.210Z,23.62
2022-09-03T13:27:34.307Z,23.52
2022-09-03T13:29:52.579Z,23.48
2022-09-03T13:32:09.678Z,23.46
2022-09-03T13:34:26.683Z,23.47
2022-09-03T13:36:47.189Z,23.43
2022-09-03T13:39:04.347Z,23.35
2022-09-03T13:41:21.483Z,23.32
2022-09-03T13:43:38.431Z,23.17
2022-09-03T13:45:55.835Z,23.09
2022-09-03T13:48:13.376Z,22.96
2022-09-03T13:50:30.436Z,22.88
2022-09-03T13:52:47.588Z,22.80
2022-09-03T13:55:04.730Z,22.77
2022-09-03T13:57:21.717Z,22.62
2022-09-03T13:59:40.066Z,22.51
2022-09-03T14:01:59.559Z,22.33
2022-09-03T14:04:16.639Z,22.21
2022-09-03T14:06:33.923Z,22.08
2022-09-03T14:08:54.253Z,21.94
2022-09-03T14:11:14.101Z,21.84
2022-09-03T14:13:31.078Z,21.70
2022-09-03T14:15:48.134Z,21.60
2022-09-03T14:18:05.192Z,21.37
2022-09-03T14:20:22.473Z,21.08
2022-09-03T14:22:39.505Z,20.92
2022-09-03T14:24:56.470Z,20.79
2022-09-03T14:27:14.183Z,20.73
2022-09-03T14:29:31.050Z,20.56
2022-09-03T14:31:49.418Z,20.50
2022-09-03T14:34:06.806Z,20.38
2022-09-03T14:36:23.923Z,20.38
2022-09-03T14:38:41.290Z,20.31
2022-09-03T14:40:58.323Z,20.26
2022-09-03T14:43:15.397Z,20.19
2022-09-03T14:45:32.376Z,20.25
2022-09-03T14:47:49.341Z,20.23
2022-09-03T14:50:06.636Z,20.14
2022-09-03T14:52:24.174Z,20.13
2022-09-03T14:54:41.499Z,20.11
2022-09-03T14:56:59.445Z,19.99
2022-09-03T14:59:16.977Z,19.97
2022-09-03T15:01:38.870Z,19.93
2022-09-03T15:03:57.101Z,19.94
2022-09-03T15:06:14.166Z,19.99
2022-09-03T15:08:31.267Z,20.05
2022-09-03T15:10:49.538Z,20.11
2022-09-03T15:13:08.207Z,20.25
2022-09-03T15:15:25.524Z,20.42
2022-09-03T15:17:43.132Z,20.64
2022-09-03T15:20:00.596Z,20.81
2022-09-03T15:22:17.591Z,20.83
2022-09-03T15:24:36.442Z,20.96
2022-09-03T15:26:53.723Z,21.08
2022-09-03T15:29:10.983Z,21.28
2022-09-03T15:31:28.775Z,21.41
2022-09-03T15:33:46.132Z,21.58
2022-09-03T15:36:03.099Z,21.73
2022-09-03T15:38:20.428Z,21.88
2022-09-03T15:40:38.448Z,22.05
2022-09-03T15:42:57.954Z,22.27
2022-09-03T15:45:15.990Z,22.57
2022-09-03T15:47:46.526Z,22.76
2022-09-03T15:50:08.311Z,22.90
2022-09-03T15:52:26.650Z,22.99
2022-09-03T15:54:43.732Z,23.09
2022-09-03T15:57:00.792Z,23.15
2022-09-03T15:59:17.862Z,23.12
2022-09-03T16:01:35.504Z,23.11
2022-09-03T16:03:52.822Z,23.06
2022-09-03T16:06:11.919Z,22.91
2022-09-03T16:08:30.002Z,22.68
2022-09-03T16:10:47.067Z,22.32
2022-09-03T16:13:04.046Z,22.15
2022-09-03T16:15:21.037Z,21.96
2022-09-03T16:17:38.302Z,21.68
2022-09-03T16:19:55.853Z,21.59
2022-09-03T16:22:13.110Z,21.48
2022-09-03T16:24:30.071Z,21.46
2022-09-03T16:26:47.263Z,21.49
2022-09-03T16:29:04.206Z,21.49
2022-09-03T16:31:21.285Z,21.64
2022-09-03T16:33:38.477Z,21.77
2022-09-03T16:35:55.864Z,21.84
2022-09-03T16:38:14.206Z,21.93
2022-09-03T16:40:31.608Z,22.02
2022-09-03T16:42:48.639Z,22.06
2022-09-03T16:45:05.690Z,22.09
2022-09-03T16:47:23.019Z,22.06
2022-09-03T16:49:40.076Z,22.04
2022-09-03T16:51:57.135Z,22.06
2022-09-03T16:54:14.698Z,21.94
2022-09-03T16:56:33.024Z,21.88
2022-09-03T16:58:50.007Z,21.76
2022-09-03T17:01:07.558Z,21.64
2022-09-03T17:03:26.593Z,21.63
2022-09-03T17:05:43.926Z,21.52
2022-09-03T17:08:02.749Z,21.34
2022-09-03T17:10:20.166Z,21.31
2022-09-03T17:12:37.245Z,21.19
2022-09-03T17:14:54.624Z,20.95
2022-09-03T17:17:11.702Z,20.71
2022-09-03T17:19:28.674Z,20.56
2022-09-03T17:21:46.810Z,20.34
2022-09-03T17:24:03.918Z,20.18
2022-09-03T17:26:21.249Z,20.04
2022-09-03T17:28:38.340Z,19.99
2022-09-03T17:30:55.903Z,19.86
2022-09-03T17:33:13.910Z,19.82
2022-09-03T17:35:33.851Z,19.70
2022-09-03T17:37:54.695Z,19.58
2022-09-03T17:40:12.058Z,19.47
2022-09-03T17:42:29.157Z,19.37
2022-09-03T17:44:46.303Z,19.31
2022-09-03T17:47:03.790Z,19.26
2022-09-03T17:49:22.240Z,19.16
2022-09-03T17:51:39.327Z,19.08
2022-09-03T17:53:56.340Z,19.06
2022-09-03T17:56:13.496Z,19.01
2022-09-03T17:58:31.339Z,18.99
2022-09-03T18:00:48.683Z,18.95
2022-09-03T18:03:06.074Z,18.90
2022-09-03T18:05:23.187Z,18.85
2022-09-03T18:07:40.274Z,18.79
2022-09-03T18:09:57.257Z,18.74
2022-09-03T18:12:14.152Z,18.67
2022-09-03T18:14:31.428Z,18.61
2022-09-03T18:16:48.527Z,18.53
2022-09-03T18:19:05.500Z,18.47
2022-09-03T18:21:26.557Z,18.40
2022-09-03T18:23:46.205Z,18.37
2022-09-03T18:26:03.187Z,18.28
2022-09-03T18:28:20.587Z,18.23
2022-09-03T18:30:40.196Z,18.20
2022-09-03T18:32:57.561Z,18.17
2022-09-03T18:35:14.567Z,18.12
2022-09-03T18:37:31.607Z,18.08
2022-09-03T18:39:48.675Z,18.05
2022-09-03T18:42:05.674Z,17.99
2022-09-03T18:44:23.649Z,17.98
2022-09-03T18:49:17.627Z,17.97
2022-09-03T18:51:35.053Z,17.94
2022-09-03T18:53:54.597Z,17.91
2022-09-03T18:56:12.519Z,17.89
2022-09-03T18:58:30.462Z,17.93
2022-09-03T19:00:47.674Z,17.94
2022-09-03T19:03:05.110Z,17.93
2022-09-03T19:05:22.309Z,17.88
2022-09-03T19:07:39.805Z,17.87
2022-09-03T19:09:56.854Z,17.90
2022-09-03T19:12:14.205Z,17.88
2022-09-03T19:14:32.435Z,17.88
2022-09-03T19:16:49.496Z,17.90
2022-09-03T19:19:08.789Z,17.88
2022-09-03T19:21:28.111Z,17.92
2022-09-03T19:23:45.148Z,17.87
2022-09-03T19:26:03.148Z,17.80
2022-09-03T19:28:21.699Z,17.79
2022-09-03T19:30:39.944Z,17.74
2022-09-03T19:32:59.740Z,17.70
2022-09-03T19:35:16.809Z,17.68
2022-09-03T19:37:34.134Z,17.68
2022-09-03T19:39:51.266Z,17.67
2022-09-03T19:42:09.653Z,17.63
2022-09-03T19:44:26.623Z,17.67
2022-09-03T19:46:43.954Z,17.66
2022-09-03T19:49:01.053Z,17.68
2022-09-03T19:51:18.305Z,17.61
2022-09-03T19:53:36.598Z,17.63
2022-09-03T19:55:53.538Z,17.59
2022-09-03T19:58:32.215Z,17.65
2022-09-03T20:00:47.449Z,17.74
2022-09-03T20:03:04.446Z,17.66
2022-09-03T20:05:21.610Z,17.60
2022-09-03T20:07:38.571Z,17.53
2022-09-03T20:09:55.620Z,17.49
2022-09-03T20:12:12.679Z,17.46
2022-09-03T20:14:30.939Z,17.47
2022-09-03T20:16:47.999Z,17.50
2022-09-03T20:19:04.943Z,17.45
2022-09-03T20:21:22.313Z,17.41
2022-09-03T20:23:39.570Z,17.42
2022-09-03T20:25:56.853Z,17.36
2022-09-03T20:28:13.836Z,17.43
2022-09-03T20:30:30.769Z,17.47
2022-09-03T20:32:48.615Z,17.42
2022-09-03T20:35:10.343Z,17.39
2022-09-03T20:37:28.265Z,17.40
2022-09-03T20:39:45.567Z,17.41
2022-09-03T20:42:02.934Z,17.40
2022-09-03T20:44:20.196Z,17.37
2022-09-03T20:46:37.579Z,17.38
2022-09-03T20:48:54.553Z,17.39
2022-09-03T20:51:12.236Z,17.38
2022-09-03T20:53:29.797Z,17.38
2022-09-03T20:55:46.745Z,17.40
2022-09-03T20:58:03.661Z,17.39
2022-09-03T21:00:20.731Z,17.38
2022-09-03T21:02:37.865Z,17.40
2022-09-03T21:04:54.997Z,17.41
2022-09-03T21:07:12.074Z,17.39
2022-09-03T21:09:29.409Z,17.41
2022-09-03T21:11:46.361Z,17.42
2022-09-03T21:14:03.687Z,17.45
2022-09-03T21:16:20.997Z,17.47
2022-09-03T21:18:37.967Z,17.51
2022-09-03T21:20:55.296Z,17.53
2022-09-03T21:23:13.367Z,17.51
2022-09-03T21:25:30.463Z,17.51
2022-09-03T21:27:47.728Z,17.52
2022-09-03T21:30:04.756Z,17.51
2022-09-03T21:32:22.377Z,17.52
2022-09-03T21:34:39.705Z,17.51
2022-09-03T21:36:56.754Z,17.51
2022-09-03T21:39:14.066Z,17.52
2022-09-03T21:41:30.993Z,17.50
2022-09-03T21:43:48.294Z,17.49
2022-09-03T21:46:05.507Z,17.52
2022-09-03T21:48:32.170Z,17.54
2022-09-03T21:50:49.271Z,17.57
2022-09-03T21:53:06.760Z,17.57
2022-09-03T21:55:23.712Z,17.57
2022-09-03T21:57:40.726Z,17.60
2022-09-03T21:59:57.683Z,17.57
2022-09-03T22:02:14.672Z,17.56
2022-09-03T22:04:31.783Z,17.58
2022-09-03T22:06:48.827Z,17.52
2022-09-03T22:09:05.727Z,17.50
2022-09-03T22:11:22.640Z,17.48
2022-09-03T22:13:39.646Z,17.43
2022-09-03T22:15:56.758Z,17.44
2022-09-03T22:18:15.027Z,17.45
2022-09-03T22:20:32.348Z,17.45
2022-09-03T22:22:49.296Z,17.43
2022-09-03T22:25:06.644Z,17.47
2022-09-03T22:27:23.923Z,17.46
2022-09-03T22:29:41.170Z,17.44
2022-09-03T22:31:58.782Z,17.42
2022-09-03T22:34:15.877Z,17.45
2022-09-03T22:36:32.913Z,17.50
2022-09-03T22:38:50.129Z,17.51
2022-09-03T22:41:07.349Z,17.47
2022-09-03T22:43:24.583Z,17.43
2022-09-03T22:45:41.591Z,17.46
2022-09-03T22:47:58.657Z,17.43
2022-09-03T22:50:15.940Z,17.42
2022-09-03T22:52:33.136Z,17.47
2022-09-03T22:54:50.165Z,17.45
2022-09-03T22:57:07.098Z,17.42
2022-09-03T22:59:24.339Z,17.42
2022-09-03T23:01:41.471Z,17.42
2022-09-03T23:03:58.669Z,17.39
2022-09-03T23:06:15.865Z,17.40
2022-09-03T23:08:33.768Z,17.39
2022-09-03T23:10:51.046Z,17.40
2022-09-03T23:13:08.075Z,17.40
2022-09-03T23:15:25.157Z,17.39
2022-09-03T23:17:42.088Z,17.41
2022-09-03T23:19:59.578Z,17.44
2022-09-03T23:22:16.454Z,17.46
2022-09-03T23:24:33.509Z,17.44
2022-09-03T23:26:51.534Z,17.47
2022-09-03T23:29:08.818Z,17.50
2022-09-03T23:31:25.878Z,17.53
2022-09-03T23:33:43.144Z,17.50
2022-09-03T23:36:00.470Z,17.48
2022-09-03T23:38:17.582Z,17.49
2022-09-03T23:40:34.638Z,17.46
2022-09-03T23:42:52.023Z,17.49
2022-09-03T23:45:10.274Z,17.49
2022-09-03T23:47:33.410Z,17.46
2022-09-03T23:49:50.481Z,17.46
2022-09-03T23:52:07.544Z,17.50
2022-09-03T23:54:25.851Z,17.49
2022-09-03T23:56:42.953Z,17.52
2022-09-03T23:59:00.218Z,17.48
